sensor_id;sensor_type;location;lat;lon;timestamp;P1;durP1;ratioP1;P2;durP2;ratioP2
74644;SDS011;63163;55.630;37.594;2022-10-16T00:00:47;5.4;;;2.4;;
74644;SDS011;63163;55.630;37.594;2022-10-16T00:01:48;4.4;;;1.9;;
74644;SDS011;63163;55.630;37.594;2022-10-16T00:02:48;5.0;;;1.9;;
74644;SDS011;63163;55.630;37.594;2022-10-16T00:03:49;10.1;;;3.1;;
74644;SDS011;63163;55.630;37.594;2022-10-16T00:04:49;4.8;;;2.5;;
74644;SDS011;63163;55.630;37.594;2022-10-16T00:05:50;6.3;;;2.2;;
74644;SDS011;63163;55.630;37.594;2022-10-16T00:06:50;8.0;;;3.1;;
74644;SDS011;63163;55.630;37.594;2022-10-16T00:07:51;5.1;;;2.5;;
74644;SDS011;63163;55.630;37.594;2022-10-16T00:08:51;5.9;;;2.5;;
74644;SDS011;63163;55.630;37.594;2022-10-16T00:09:52;4.2;;;2.1;;
74644;SDS011;63163;55.630;37.594;2022-10-16T00:10:57;4.9;;;1.8;;
74644;SDS011;63163;55.630;37.594;2022-10-16T00:11:59;4.8;;;2.2;;
74644;SDS011;63163;55.630;37.594;2022-10-16T00:12:59;8.1;;;3.1;;
74644;SDS011;63163;55.630;37.594;2022-10-16T00:14:00;7.1;;;2.8;;
74644;SDS011;63163;55.630;37.594;2022-10-16T00:15:01;8.4;;;2.9;;
74644;SDS011;63163;55.630;37.594;2022-10-16T00:16:02;7.2;;;3.0;;
74644;SDS011;63163;55.630;37.594;2022-10-16T00:17:02;8.1;;;2.8;;
74644;SDS011;63163;55.630;37.594;2022-10-16T00:18:03;5.0;;;2.0;;
74644;SDS011;63163;55.630;37.594;2022-10-16T00:19:04;2.1;;;1.4;;
74644;SDS011;63163;55.630;37.594;2022-10-16T00:20:05;6.4;;;2.7;;
74644;SDS011;63163;55.630;37.594;2022-10-16T00:21:06;4.4;;;2.2;;
74644;SDS011;63163;55.630;37.594;2022-10-16T00:22:07;3.4;;;1.5;;
74644;SDS011;63163;55.630;37.594;2022-10-16T00:23:08;2.6;;;1.3;;
74644;SDS011;63163;55.630;37.594;2022-10-16T00:24:10;4.6;;;2.1;;
74644;SDS011;63163;55.630;37.594;2022-10-16T00:25:11;7.4;;;3.1;;
74644;SDS011;63163;55.630;37.594;2022-10-16T00:26:12;4.2;;;2.2;;
74644;SDS011;63163;55.630;37.594;2022-10-16T00:27:13;4.3;;;2.3;;
74644;SDS011;63163;55.630;37.594;2022-10-16T00:28:14;2.7;;;1.5;;
74644;SDS011;63163;55.630;37.594;2022-10-16T00:29:14;5.0;;;2.1;;
74644;SDS011;63163;55.630;37.594;2022-10-16T00:30:15;6.7;;;2.8;;
74644;SDS011;63163;55.630;37.594;2022-10-16T00:31:16;6.0;;;2.8;;
74644;SDS011;63163;55.630;37.594;2022-10-16T00:32:17;4.0;;;1.8;;
74644;SDS011;63163;55.630;37.594;2022-10-16T00:33:18;5.5;;;2.5;;
74644;SDS011;63163;55.630;37.594;2022-10-16T00:34:18;5.8;;;2.3;;
74644;SDS011;63163;55.630;37.594;2022-10-16T00:35:19;5.4;;;2.4;;
74644;SDS011;63163;55.630;37.594;2022-10-16T00:36:20;4.3;;;2.0;;
74644;SDS011;63163;55.630;37.594;2022-10-16T00:37:21;6.0;;;2.0;;
74644;SDS011;63163;55.630;37.594;2022-10-16T00:38:21;3.1;;;1.8;;
74644;SDS011;63163;55.630;37.594;2022-10-16T00:39:22;2.1;;;1.1;;
74644;SDS011;63163;55.630;37.594;2022-10-16T00:40:22;6.1;;;2.5;;
74644;SDS011;63163;55.630;37.594;2022-10-16T00:41:23;5.4;;;2.3;;
74644;SDS011;63163;55.630;37.594;2022-10-16T00:42:24;6.8;;;2.7;;
74644;SDS011;63163;55.630;37.594;2022-10-16T00:43:33;6.9;;;2.4;;
74644;SDS011;63163;55.630;37.594;2022-10-16T00:44:49;4.4;;;2.4;;
74644;SDS011;63163;55.630;37.594;2022-10-16T00:45:50;5.3;;;2.4;;
74644;SDS011;63163;55.630;37.594;2022-10-16T00:46:51;3.9;;;2.0;;
74644;SDS011;63163;55.630;37.594;2022-10-16T00:47:52;5.0;;;2.5;;
74644;SDS011;63163;55.630;37.594;2022-10-16T00:48:55;6.3;;;2.5;;
74644;SDS011;63163;55.630;37.594;2022-10-16T00:49:59;5.7;;;2.7;;
74644;SDS011;63163;55.630;37.594;2022-10-16T00:51:01;6.2;;;2.7;;
74644;SDS011;63163;55.630;37.594;2022-10-16T00:52:01;5.2;;;2.0;;
74644;SDS011;63163;55.630;37.594;2022-10-16T00:53:02;5.0;;;2.3;;
74644;SDS011;63163;55.630;37.594;2022-10-16T00:54:04;5.0;;;2.5;;
74644;SDS011;63163;55.630;37.594;2022-10-16T00:55:07;4.2;;;2.3;;
74644;SDS011;63163;55.630;37.594;2022-10-16T00:56:08;5.2;;;2.8;;
74644;SDS011;63163;55.630;37.594;2022-10-16T00:57:09;4.8;;;2.1;;
74644;SDS011;63163;55.630;37.594;2022-10-16T00:58:10;2.9;;;1.9;;
74644;SDS011;63163;55.630;37.594;2022-10-16T00:59:13;5.1;;;1.9;;
74644;SDS011;63163;55.630;37.594;2022-10-16T01:00:17;4.8;;;2.4;;
74644;SDS011;63163;55.630;37.594;2022-10-16T01:01:18;5.3;;;2.3;;
74644;SDS011;63163;55.630;37.594;2022-10-16T01:02:19;4.6;;;2.3;;
74644;SDS011;63163;55.630;37.594;2022-10-16T01:03:22;4.9;;;2.3;;
74644;SDS011;63163;55.630;37.594;2022-10-16T01:04:23;11.8;;;2.6;;
74644;SDS011;63163;55.630;37.594;2022-10-16T01:05:25;6.1;;;2.6;;
74644;SDS011;63163;55.630;37.594;2022-10-16T01:06:30;4.3;;;2.2;;
74644;SDS011;63163;55.630;37.594;2022-10-16T01:07:36;2.6;;;1.5;;
74644;SDS011;63163;55.630;37.594;2022-10-16T01:08:43;3.6;;;2.0;;
74644;SDS011;63163;55.630;37.594;2022-10-16T01:09:47;5.6;;;2.8;;
74644;SDS011;63163;55.630;37.594;2022-10-16T01:10:52;5.5;;;2.4;;
74644;SDS011;63163;55.630;37.594;2022-10-16T01:11:57;5.4;;;2.7;;
74644;SDS011;63163;55.630;37.594;2022-10-16T01:13:03;6.7;;;2.4;;
74644;SDS011;63163;55.630;37.594;2022-10-16T01:14:06;5.2;;;2.5;;
74644;SDS011;63163;55.630;37.594;2022-10-16T01:15:11;4.6;;;2.2;;
74644;SDS011;63163;55.630;37.594;2022-10-16T01:16:14;5.1;;;2.4;;
74644;SDS011;63163;55.630;37.594;2022-10-16T01:17:16;4.2;;;2.0;;
74644;SDS011;63163;55.630;37.594;2022-10-16T01:18:20;5.1;;;2.5;;
74644;SDS011;63163;55.630;37.594;2022-10-16T01:19:26;8.8;;;2.7;;
74644;SDS011;63163;55.630;37.594;2022-10-16T01:20:30;3.6;;;2.1;;
74644;SDS011;63163;55.630;37.594;2022-10-16T01:21:33;5.0;;;2.1;;
74644;SDS011;63163;55.630;37.594;2022-10-16T01:22:38;4.7;;;2.2;;
74644;SDS011;63163;55.630;37.594;2022-10-16T01:23:43;4.4;;;2.6;;
74644;SDS011;63163;55.630;37.594;2022-10-16T01:24:48;4.4;;;2.0;;
74644;SDS011;63163;55.630;37.594;2022-10-16T01:25:53;5.4;;;2.7;;
74644;SDS011;63163;55.630;37.594;2022-10-16T01:27:06;4.8;;;2.3;;
74644;SDS011;63163;55.630;37.594;2022-10-16T01:28:07;6.5;;;2.5;;
74644;SDS011;63163;55.630;37.594;2022-10-16T01:29:11;4.9;;;2.7;;
74644;SDS011;63163;55.630;37.594;2022-10-16T01:30:15;5.2;;;2.5;;
74644;SDS011;63163;55.630;37.594;2022-10-16T01:31:17;5.5;;;2.3;;
74644;SDS011;63163;55.630;37.594;2022-10-16T01:32:20;4.1;;;2.2;;
74644;SDS011;63163;55.630;37.594;2022-10-16T01:33:21;4.0;;;1.8;;
74644;SDS011;63163;55.630;37.594;2022-10-16T01:34:25;5.7;;;2.6;;
74644;SDS011;63163;55.630;37.594;2022-10-16T01:35:28;4.1;;;2.2;;
74644;SDS011;63163;55.630;37.594;2022-10-16T01:36:31;5.3;;;2.6;;
74644;SDS011;63163;55.630;37.594;2022-10-16T01:37:36;4.6;;;2.4;;
74644;SDS011;63163;55.630;37.594;2022-10-16T01:38:39;7.3;;;2.7;;
74644;SDS011;63163;55.630;37.594;2022-10-16T01:39:40;4.6;;;2.1;;
74644;SDS011;63163;55.630;37.594;2022-10-16T01:40:44;5.3;;;2.6;;
74644;SDS011;63163;55.630;37.594;2022-10-16T01:41:47;5.2;;;2.5;;
74644;SDS011;63163;55.630;37.594;2022-10-16T01:42:50;5.3;;;2.8;;
74644;SDS011;63163;55.630;37.594;2022-10-16T01:43:55;4.2;;;2.3;;
74644;SDS011;63163;55.630;37.594;2022-10-16T01:44:57;6.2;;;2.7;;
74644;SDS011;63163;55.630;37.594;2022-10-16T01:45:58;6.0;;;2.6;;
74644;SDS011;63163;55.630;37.594;2022-10-16T01:46:59;6.4;;;2.9;;
74644;SDS011;63163;55.630;37.594;2022-10-16T01:48:00;8.6;;;2.6;;
74644;SDS011;63163;55.630;37.594;2022-10-16T01:49:04;4.4;;;2.3;;
74644;SDS011;63163;55.630;37.594;2022-10-16T01:50:06;5.8;;;2.8;;
74644;SDS011;63163;55.630;37.594;2022-10-16T01:51:08;5.5;;;2.4;;
74644;SDS011;63163;55.630;37.594;2022-10-16T01:52:10;4.0;;;2.2;;
74644;SDS011;63163;55.630;37.594;2022-10-16T01:53:12;5.0;;;2.4;;
74644;SDS011;63163;55.630;37.594;2022-10-16T01:54:14;5.7;;;2.5;;
74644;SDS011;63163;55.630;37.594;2022-10-16T01:55:17;5.6;;;2.2;;
74644;SDS011;63163;55.630;37.594;2022-10-16T01:56:18;5.0;;;2.3;;
74644;SDS011;63163;55.630;37.594;2022-10-16T01:57:22;4.8;;;2.6;;
74644;SDS011;63163;55.630;37.594;2022-10-16T01:58:24;4.7;;;2.5;;
74644;SDS011;63163;55.630;37.594;2022-10-16T01:59:26;5.1;;;2.4;;
74644;SDS011;63163;55.630;37.594;2022-10-16T02:00:28;5.4;;;2.3;;
74644;SDS011;63163;55.630;37.594;2022-10-16T02:01:30;4.6;;;2.6;;
74644;SDS011;63163;55.630;37.594;2022-10-16T02:02:32;5.3;;;2.5;;
74644;SDS011;63163;55.630;37.594;2022-10-16T02:03:32;4.5;;;2.5;;
74644;SDS011;63163;55.630;37.594;2022-10-16T02:04:36;5.7;;;2.3;;
74644;SDS011;63163;55.630;37.594;2022-10-16T02:05:38;3.5;;;2.2;;
74644;SDS011;63163;55.630;37.594;2022-10-16T02:06:39;3.7;;;1.6;;
74644;SDS011;63163;55.630;37.594;2022-10-16T02:07:39;5.3;;;2.4;;
74644;SDS011;63163;55.630;37.594;2022-10-16T02:08:42;6.9;;;2.3;;
74644;SDS011;63163;55.630;37.594;2022-10-16T02:09:44;5.5;;;2.4;;
74644;SDS011;63163;55.630;37.594;2022-10-16T02:10:44;5.0;;;2.4;;
74644;SDS011;63163;55.630;37.594;2022-10-16T02:11:45;3.5;;;2.1;;
74644;SDS011;63163;55.630;37.594;2022-10-16T02:12:47;4.7;;;2.3;;
74644;SDS011;63163;55.630;37.594;2022-10-16T02:13:50;3.8;;;1.8;;
74644;SDS011;63163;55.630;37.594;2022-10-16T02:14:51;4.4;;;2.3;;
74644;SDS011;63163;55.630;37.594;2022-10-16T02:15:53;4.6;;;2.4;;
74644;SDS011;63163;55.630;37.594;2022-10-16T02:16:53;4.9;;;2.1;;
74644;SDS011;63163;55.630;37.594;2022-10-16T02:17:54;4.4;;;2.4;;
74644;SDS011;63163;55.630;37.594;2022-10-16T02:18:54;4.8;;;2.5;;
74644;SDS011;63163;55.630;37.594;2022-10-16T02:19:55;5.1;;;2.2;;
74644;SDS011;63163;55.630;37.594;2022-10-16T02:20:57;3.4;;;2.0;;
74644;SDS011;63163;55.630;37.594;2022-10-16T02:22:00;2.7;;;1.5;;
74644;SDS011;63163;55.630;37.594;2022-10-16T02:23:01;4.6;;;2.3;;
74644;SDS011;63163;55.630;37.594;2022-10-16T02:24:03;6.6;;;3.1;;
74644;SDS011;63163;55.630;37.594;2022-10-16T02:25:08;6.0;;;2.8;;
74644;SDS011;63163;55.630;37.594;2022-10-16T02:26:11;6.9;;;2.8;;
74644;SDS011;63163;55.630;37.594;2022-10-16T02:27:14;4.4;;;2.5;;
74644;SDS011;63163;55.630;37.594;2022-10-16T02:28:16;4.8;;;2.4;;
74644;SDS011;63163;55.630;37.594;2022-10-16T02:29:19;5.1;;;2.8;;
74644;SDS011;63163;55.630;37.594;2022-10-16T02:30:23;3.6;;;2.3;;
74644;SDS011;63163;55.630;37.594;2022-10-16T02:31:27;5.8;;;2.5;;
74644;SDS011;63163;55.630;37.594;2022-10-16T02:32:29;5.4;;;2.9;;
74644;SDS011;63163;55.630;37.594;2022-10-16T02:33:30;4.7;;;2.5;;
74644;SDS011;63163;55.630;37.594;2022-10-16T02:34:32;4.1;;;2.2;;
74644;SDS011;63163;55.630;37.594;2022-10-16T02:35:33;5.5;;;2.7;;
74644;SDS011;63163;55.630;37.594;2022-10-16T02:36:34;4.7;;;2.6;;
74644;SDS011;63163;55.630;37.594;2022-10-16T02:37:36;5.7;;;2.4;;
74644;SDS011;63163;55.630;37.594;2022-10-16T02:38:37;4.2;;;2.3;;
74644;SDS011;63163;55.630;37.594;2022-10-16T02:39:39;6.1;;;2.7;;
74644;SDS011;63163;55.630;37.594;2022-10-16T02:40:40;5.1;;;2.7;;
74644;SDS011;63163;55.630;37.594;2022-10-16T02:41:41;7.0;;;3.1;;
74644;SDS011;63163;55.630;37.594;2022-10-16T02:42:41;7.0;;;2.8;;
74644;SDS011;63163;55.630;37.594;2022-10-16T02:43:42;4.9;;;2.5;;
74644;SDS011;63163;55.630;37.594;2022-10-16T02:44:42;4.9;;;2.4;;
74644;SDS011;63163;55.630;37.594;2022-10-16T02:45:43;4.2;;;2.4;;
74644;SDS011;63163;55.630;37.594;2022-10-16T02:46:43;4.3;;;2.5;;
74644;SDS011;63163;55.630;37.594;2022-10-16T02:47:44;5.3;;;2.5;;
74644;SDS011;63163;55.630;37.594;2022-10-16T02:48:45;4.6;;;2.6;;
74644;SDS011;63163;55.630;37.594;2022-10-16T02:49:45;6.5;;;2.9;;
74644;SDS011;63163;55.630;37.594;2022-10-16T02:50:46;5.6;;;2.4;;
74644;SDS011;63163;55.630;37.594;2022-10-16T02:51:46;3.8;;;2.2;;
74644;SDS011;63163;55.630;37.594;2022-10-16T02:52:47;3.6;;;2.2;;
74644;SDS011;63163;55.630;37.594;2022-10-16T02:53:47;5.3;;;2.1;;
74644;SDS011;63163;55.630;37.594;2022-10-16T02:54:47;5.8;;;2.4;;
74644;SDS011;63163;55.630;37.594;2022-10-16T02:55:48;4.5;;;2.1;;
74644;SDS011;63163;55.630;37.594;2022-10-16T02:56:48;8.4;;;2.5;;
74644;SDS011;63163;55.630;37.594;2022-10-16T02:57:49;7.5;;;2.6;;
74644;SDS011;63163;55.630;37.594;2022-10-16T02:58:49;4.9;;;2.2;;
74644;SDS011;63163;55.630;37.594;2022-10-16T02:59:50;5.6;;;2.3;;
74644;SDS011;63163;55.630;37.594;2022-10-16T03:00:51;4.0;;;2.2;;
74644;SDS011;63163;55.630;37.594;2022-10-16T03:01:51;5.7;;;2.2;;
74644;SDS011;63163;55.630;37.594;2022-10-16T03:02:52;5.9;;;2.6;;
74644;SDS011;63163;55.630;37.594;2022-10-16T03:03:52;4.2;;;1.8;;
74644;SDS011;63163;55.630;37.594;2022-10-16T03:04:53;6.3;;;2.1;;
74644;SDS011;63163;55.630;37.594;2022-10-16T03:05:53;4.2;;;2.3;;
74644;SDS011;63163;55.630;37.594;2022-10-16T03:06:54;6.1;;;2.3;;
74644;SDS011;63163;55.630;37.594;2022-10-16T03:07:54;6.0;;;2.6;;
74644;SDS011;63163;55.630;37.594;2022-10-16T03:08:55;4.8;;;2.4;;
74644;SDS011;63163;55.630;37.594;2022-10-16T03:09:56;5.1;;;2.3;;
74644;SDS011;63163;55.630;37.594;2022-10-16T03:10:56;5.8;;;2.2;;
74644;SDS011;63163;55.630;37.594;2022-10-16T03:11:57;4.5;;;2.1;;
74644;SDS011;63163;55.630;37.594;2022-10-16T03:12:57;4.8;;;2.7;;
74644;SDS011;63163;55.630;37.594;2022-10-16T03:13:58;5.9;;;2.4;;
74644;SDS011;63163;55.630;37.594;2022-10-16T03:14:58;5.7;;;2.2;;
74644;SDS011;63163;55.630;37.594;2022-10-16T03:15:59;4.6;;;2.6;;
74644;SDS011;63163;55.630;37.594;2022-10-16T03:16:59;7.4;;;2.6;;
74644;SDS011;63163;55.630;37.594;2022-10-16T03:18:00;5.8;;;2.4;;
74644;SDS011;63163;55.630;37.594;2022-10-16T03:19:01;6.5;;;2.5;;
74644;SDS011;63163;55.630;37.594;2022-10-16T03:20:02;6.3;;;2.3;;
74644;SDS011;63163;55.630;37.594;2022-10-16T03:21:03;5.7;;;2.5;;
74644;SDS011;63163;55.630;37.594;2022-10-16T03:22:04;6.0;;;2.6;;
74644;SDS011;63163;55.630;37.594;2022-10-16T03:23:04;6.1;;;2.0;;
74644;SDS011;63163;55.630;37.594;2022-10-16T03:24:05;4.3;;;2.3;;
74644;SDS011;63163;55.630;37.594;2022-10-16T03:25:06;4.7;;;2.0;;
74644;SDS011;63163;55.630;37.594;2022-10-16T03:26:06;5.0;;;2.2;;
74644;SDS011;63163;55.630;37.594;2022-10-16T03:27:07;4.6;;;2.5;;
74644;SDS011;63163;55.630;37.594;2022-10-16T03:28:07;4.7;;;2.1;;
74644;SDS011;63163;55.630;37.594;2022-10-16T03:29:08;5.6;;;2.4;;
74644;SDS011;63163;55.630;37.594;2022-10-16T03:30:09;4.9;;;2.5;;
74644;SDS011;63163;55.630;37.594;2022-10-16T03:31:10;5.1;;;2.4;;
74644;SDS011;63163;55.630;37.594;2022-10-16T03:32:10;6.1;;;1.7;;
74644;SDS011;63163;55.630;37.594;2022-10-16T03:33:11;4.5;;;1.7;;
74644;SDS011;63163;55.630;37.594;2022-10-16T03:34:11;6.6;;;2.5;;
74644;SDS011;63163;55.630;37.594;2022-10-16T03:35:12;5.9;;;2.5;;
74644;SDS011;63163;55.630;37.594;2022-10-16T03:36:12;6.7;;;2.3;;
74644;SDS011;63163;55.630;37.594;2022-10-16T03:37:13;5.7;;;2.4;;
74644;SDS011;63163;55.630;37.594;2022-10-16T03:38:13;6.1;;;2.3;;
74644;SDS011;63163;55.630;37.594;2022-10-16T03:39:14;4.3;;;2.3;;
74644;SDS011;63163;55.630;37.594;2022-10-16T03:40:15;5.8;;;2.6;;
74644;SDS011;63163;55.630;37.594;2022-10-16T03:41:15;4.1;;;2.0;;
74644;SDS011;63163;55.630;37.594;2022-10-16T03:42:16;4.6;;;1.9;;
74644;SDS011;63163;55.630;37.594;2022-10-16T03:43:16;5.1;;;1.6;;
74644;SDS011;63163;55.630;37.594;2022-10-16T03:44:17;4.3;;;2.4;;
74644;SDS011;63163;55.630;37.594;2022-10-16T03:45:17;4.3;;;1.6;;
74644;SDS011;63163;55.630;37.594;2022-10-16T03:46:18;5.1;;;2.6;;
74644;SDS011;63163;55.630;37.594;2022-10-16T03:47:18;5.9;;;2.3;;
74644;SDS011;63163;55.630;37.594;2022-10-16T03:48:21;5.5;;;2.0;;
74644;SDS011;63163;55.630;37.594;2022-10-16T03:49:22;6.0;;;2.4;;
74644;SDS011;63163;55.630;37.594;2022-10-16T03:50:22;6.7;;;2.4;;
74644;SDS011;63163;55.630;37.594;2022-10-16T03:51:23;5.5;;;2.8;;
74644;SDS011;63163;55.630;37.594;2022-10-16T03:52:23;7.8;;;3.1;;
74644;SDS011;63163;55.630;37.594;2022-10-16T03:53:24;5.4;;;2.6;;
74644;SDS011;63163;55.630;37.594;2022-10-16T03:54:25;4.5;;;2.4;;
74644;SDS011;63163;55.630;37.594;2022-10-16T03:55:25;6.5;;;2.6;;
74644;SDS011;63163;55.630;37.594;2022-10-16T03:56:26;5.8;;;3.0;;
74644;SDS011;63163;55.630;37.594;2022-10-16T03:57:26;9.0;;;3.1;;
74644;SDS011;63163;55.630;37.594;2022-10-16T03:58:27;5.5;;;2.9;;
74644;SDS011;63163;55.630;37.594;2022-10-16T03:59:27;6.3;;;3.0;;
74644;SDS011;63163;55.630;37.594;2022-10-16T04:00:28;5.4;;;2.4;;
74644;SDS011;63163;55.630;37.594;2022-10-16T04:01:28;7.6;;;3.3;;
74644;SDS011;63163;55.630;37.594;2022-10-16T04:02:29;5.7;;;2.8;;
74644;SDS011;63163;55.630;37.594;2022-10-16T04:03:29;9.0;;;3.6;;
74644;SDS011;63163;55.630;37.594;2022-10-16T04:04:30;7.6;;;3.4;;
74644;SDS011;63163;55.630;37.594;2022-10-16T04:05:30;6.7;;;3.2;;
74644;SDS011;63163;55.630;37.594;2022-10-16T04:06:31;5.6;;;2.9;;
74644;SDS011;63163;55.630;37.594;2022-10-16T04:07:31;6.9;;;3.5;;
74644;SDS011;63163;55.630;37.594;2022-10-16T04:08:32;7.0;;;3.4;;
74644;SDS011;63163;55.630;37.594;2022-10-16T04:09:35;9.3;;;3.3;;
74644;SDS011;63163;55.630;37.594;2022-10-16T04:10:35;6.0;;;3.5;;
74644;SDS011;63163;55.630;37.594;2022-10-16T04:11:36;7.9;;;3.5;;
74644;SDS011;63163;55.630;37.594;2022-10-16T04:12:36;6.7;;;3.3;;
74644;SDS011;63163;55.630;37.594;2022-10-16T04:13:37;5.7;;;2.9;;
74644;SDS011;63163;55.630;37.594;2022-10-16T04:14:37;7.3;;;3.8;;
74644;SDS011;63163;55.630;37.594;2022-10-16T04:15:38;6.4;;;4.0;;
74644;SDS011;63163;55.630;37.594;2022-10-16T04:16:39;7.1;;;3.9;;
74644;SDS011;63163;55.630;37.594;2022-10-16T04:17:39;7.3;;;3.5;;
74644;SDS011;63163;55.630;37.594;2022-10-16T04:18:40;6.8;;;4.0;;
74644;SDS011;63163;55.630;37.594;2022-10-16T04:19:40;9.5;;;3.9;;
74644;SDS011;63163;55.630;37.594;2022-10-16T04:20:40;7.1;;;3.5;;
74644;SDS011;63163;55.630;37.594;2022-10-16T04:21:41;7.6;;;3.7;;
74644;SDS011;63163;55.630;37.594;2022-10-16T04:22:42;9.0;;;4.0;;
74644;SDS011;63163;55.630;37.594;2022-10-16T04:23:42;8.5;;;3.8;;
74644;SDS011;63163;55.630;37.594;2022-10-16T04:24:43;6.2;;;3.7;;
74644;SDS011;63163;55.630;37.594;2022-10-16T04:25:43;8.1;;;3.8;;
74644;SDS011;63163;55.630;37.594;2022-10-16T04:26:44;6.3;;;3.6;;
74644;SDS011;63163;55.630;37.594;2022-10-16T04:27:44;9.1;;;4.0;;
74644;SDS011;63163;55.630;37.594;2022-10-16T04:28:45;8.7;;;3.8;;
74644;SDS011;63163;55.630;37.594;2022-10-16T04:29:45;7.5;;;3.9;;
74644;SDS011;63163;55.630;37.594;2022-10-16T04:30:46;4.6;;;2.4;;
74644;SDS011;63163;55.630;37.594;2022-10-16T04:31:46;7.4;;;3.7;;
74644;SDS011;63163;55.630;37.594;2022-10-16T04:32:47;6.7;;;3.4;;
74644;SDS011;63163;55.630;37.594;2022-10-16T04:33:48;11.5;;;4.6;;
74644;SDS011;63163;55.630;37.594;2022-10-16T04:34:48;9.5;;;4.2;;
74644;SDS011;63163;55.630;37.594;2022-10-16T04:35:55;8.5;;;4.0;;
74644;SDS011;63163;55.630;37.594;2022-10-16T04:36:56;9.2;;;4.3;;
74644;SDS011;63163;55.630;37.594;2022-10-16T04:37:56;5.3;;;3.0;;
74644;SDS011;63163;55.630;37.594;2022-10-16T04:38:57;6.9;;;3.8;;
74644;SDS011;63163;55.630;37.594;2022-10-16T04:39:57;8.0;;;4.1;;
74644;SDS011;63163;55.630;37.594;2022-10-16T04:40:58;9.6;;;4.4;;
74644;SDS011;63163;55.630;37.594;2022-10-16T04:41:59;9.8;;;4.7;;
74644;SDS011;63163;55.630;37.594;2022-10-16T04:43:00;8.5;;;4.2;;
74644;SDS011;63163;55.630;37.594;2022-10-16T04:44:01;11.7;;;4.2;;
74644;SDS011;63163;55.630;37.594;2022-10-16T04:45:01;6.8;;;3.0;;
74644;SDS011;63163;55.630;37.594;2022-10-16T04:46:02;6.3;;;2.7;;
74644;SDS011;63163;55.630;37.594;2022-10-16T04:47:04;4.8;;;2.5;;
74644;SDS011;63163;55.630;37.594;2022-10-16T04:48:05;8.6;;;3.6;;
74644;SDS011;63163;55.630;37.594;2022-10-16T04:49:05;7.5;;;3.5;;
74644;SDS011;63163;55.630;37.594;2022-10-16T04:50:06;9.3;;;4.0;;
74644;SDS011;63163;55.630;37.594;2022-10-16T04:51:07;11.9;;;5.9;;
74644;SDS011;63163;55.630;37.594;2022-10-16T04:52:07;5.3;;;2.7;;
74644;SDS011;63163;55.630;37.594;2022-10-16T04:53:09;6.8;;;3.2;;
74644;SDS011;63163;55.630;37.594;2022-10-16T04:54:10;7.4;;;3.7;;
74644;SDS011;63163;55.630;37.594;2022-10-16T04:55:10;9.4;;;3.3;;
74644;SDS011;63163;55.630;37.594;2022-10-16T04:56:11;7.1;;;3.1;;
74644;SDS011;63163;55.630;37.594;2022-10-16T04:57:11;6.3;;;3.2;;
74644;SDS011;63163;55.630;37.594;2022-10-16T04:58:12;9.1;;;3.6;;
74644;SDS011;63163;55.630;37.594;2022-10-16T04:59:13;5.6;;;3.2;;
74644;SDS011;63163;55.630;37.594;2022-10-16T05:00:14;5.9;;;2.8;;
74644;SDS011;63163;55.630;37.594;2022-10-16T05:01:14;10.7;;;3.7;;
74644;SDS011;63163;55.630;37.594;2022-10-16T05:02:15;8.7;;;2.8;;
74644;SDS011;63163;55.630;37.594;2022-10-16T05:03:15;4.8;;;2.2;;
74644;SDS011;63163;55.630;37.594;2022-10-16T05:04:16;5.2;;;2.5;;
74644;SDS011;63163;55.630;37.594;2022-10-16T05:05:16;7.8;;;3.3;;
74644;SDS011;63163;55.630;37.594;2022-10-16T05:06:19;6.6;;;3.4;;
74644;SDS011;63163;55.630;37.594;2022-10-16T05:07:19;8.1;;;3.6;;
74644;SDS011;63163;55.630;37.594;2022-10-16T05:08:20;7.0;;;3.0;;
74644;SDS011;63163;55.630;37.594;2022-10-16T05:09:20;7.8;;;3.4;;
74644;SDS011;63163;55.630;37.594;2022-10-16T05:10:21;6.4;;;3.0;;
74644;SDS011;63163;55.630;37.594;2022-10-16T05:11:22;8.4;;;3.5;;
74644;SDS011;63163;55.630;37.594;2022-10-16T05:12:22;8.7;;;3.9;;
74644;SDS011;63163;55.630;37.594;2022-10-16T05:13:23;8.9;;;3.8;;
74644;SDS011;63163;55.630;37.594;2022-10-16T05:14:23;6.1;;;3.0;;
74644;SDS011;63163;55.630;37.594;2022-10-16T05:15:24;7.5;;;2.8;;
74644;SDS011;63163;55.630;37.594;2022-10-16T05:16:25;4.4;;;2.6;;
74644;SDS011;63163;55.630;37.594;2022-10-16T05:17:26;6.0;;;3.1;;
74644;SDS011;63163;55.630;37.594;2022-10-16T05:18:26;6.8;;;3.1;;
74644;SDS011;63163;55.630;37.594;2022-10-16T05:19:27;6.6;;;3.2;;
74644;SDS011;63163;55.630;37.594;2022-10-16T05:20:27;5.9;;;2.8;;
74644;SDS011;63163;55.630;37.594;2022-10-16T05:21:28;9.0;;;3.3;;
74644;SDS011;63163;55.630;37.594;2022-10-16T05:22:28;8.7;;;3.4;;
74644;SDS011;63163;55.630;37.594;2022-10-16T05:23:29;7.1;;;3.0;;
74644;SDS011;63163;55.630;37.594;2022-10-16T05:24:29;6.9;;;3.0;;
74644;SDS011;63163;55.630;37.594;2022-10-16T05:25:30;8.5;;;3.3;;
74644;SDS011;63163;55.630;37.594;2022-10-16T05:26:30;6.1;;;2.8;;
74644;SDS011;63163;55.630;37.594;2022-10-16T05:27:31;8.3;;;3.0;;
74644;SDS011;63163;55.630;37.594;2022-10-16T05:28:31;7.0;;;2.8;;
74644;SDS011;63163;55.630;37.594;2022-10-16T05:29:32;4.4;;;2.7;;
74644;SDS011;63163;55.630;37.594;2022-10-16T05:30:32;4.7;;;2.7;;
74644;SDS011;63163;55.630;37.594;2022-10-16T05:31:33;6.9;;;3.1;;
74644;SDS011;63163;55.630;37.594;2022-10-16T05:32:33;5.4;;;2.6;;
74644;SDS011;63163;55.630;37.594;2022-10-16T05:33:34;4.2;;;2.6;;
74644;SDS011;63163;55.630;37.594;2022-10-16T05:34:35;7.4;;;2.6;;
74644;SDS011;63163;55.630;37.594;2022-10-16T05:35:35;10.0;;;3.3;;
74644;SDS011;63163;55.630;37.594;2022-10-16T05:36:36;7.0;;;3.0;;
74644;SDS011;63163;55.630;37.594;2022-10-16T05:37:36;5.4;;;2.9;;
74644;SDS011;63163;55.630;37.594;2022-10-16T05:38:37;5.7;;;2.8;;
74644;SDS011;63163;55.630;37.594;2022-10-16T05:39:37;7.0;;;3.1;;
74644;SDS011;63163;55.630;37.594;2022-10-16T05:40:38;11.1;;;3.2;;
74644;SDS011;63163;55.630;37.594;2022-10-16T05:41:39;6.0;;;2.9;;
74644;SDS011;63163;55.630;37.594;2022-10-16T05:42:40;8.6;;;3.1;;
74644;SDS011;63163;55.630;37.594;2022-10-16T05:43:40;7.2;;;3.2;;
74644;SDS011;63163;55.630;37.594;2022-10-16T05:44:41;4.5;;;2.4;;
74644;SDS011;63163;55.630;37.594;2022-10-16T05:45:41;7.8;;;2.7;;
74644;SDS011;63163;55.630;37.594;2022-10-16T05:46:42;7.3;;;3.3;;
74644;SDS011;63163;55.630;37.594;2022-10-16T05:47:42;8.8;;;3.5;;
74644;SDS011;63163;55.630;37.594;2022-10-16T05:48:43;7.3;;;3.4;;
74644;SDS011;63163;55.630;37.594;2022-10-16T05:49:43;6.4;;;2.8;;
74644;SDS011;63163;55.630;37.594;2022-10-16T05:50:44;8.8;;;3.3;;
74644;SDS011;63163;55.630;37.594;2022-10-16T05:51:44;7.7;;;3.4;;
74644;SDS011;63163;55.630;37.594;2022-10-16T05:52:45;6.0;;;3.0;;
74644;SDS011;63163;55.630;37.594;2022-10-16T05:53:45;8.0;;;2.6;;
74644;SDS011;63163;55.630;37.594;2022-10-16T05:54:46;5.9;;;3.1;;
74644;SDS011;63163;55.630;37.594;2022-10-16T05:55:51;7.5;;;2.7;;
74644;SDS011;63163;55.630;37.594;2022-10-16T05:56:51;6.5;;;2.4;;
74644;SDS011;63163;55.630;37.594;2022-10-16T05:57:53;8.8;;;3.1;;
74644;SDS011;63163;55.630;37.594;2022-10-16T05:58:54;5.9;;;2.5;;
74644;SDS011;63163;55.630;37.594;2022-10-16T05:59:54;5.3;;;2.7;;
74644;SDS011;63163;55.630;37.594;2022-10-16T06:00:55;6.1;;;3.2;;
74644;SDS011;63163;55.630;37.594;2022-10-16T06:01:56;6.7;;;3.0;;
74644;SDS011;63163;55.630;37.594;2022-10-16T06:02:56;9.6;;;3.2;;
74644;SDS011;63163;55.630;37.594;2022-10-16T06:03:57;4.5;;;2.7;;
74644;SDS011;63163;55.630;37.594;2022-10-16T06:04:57;10.2;;;3.0;;
74644;SDS011;63163;55.630;37.594;2022-10-16T06:05:58;6.8;;;2.9;;
74644;SDS011;63163;55.630;37.594;2022-10-16T06:06:59;3.7;;;2.0;;
74644;SDS011;63163;55.630;37.594;2022-10-16T06:08:00;4.7;;;2.3;;
74644;SDS011;63163;55.630;37.594;2022-10-16T06:09:01;6.0;;;2.4;;
74644;SDS011;63163;55.630;37.594;2022-10-16T06:10:02;7.4;;;2.8;;
74644;SDS011;63163;55.630;37.594;2022-10-16T06:11:03;6.9;;;3.1;;
74644;SDS011;63163;55.630;37.594;2022-10-16T06:12:04;9.7;;;3.0;;
74644;SDS011;63163;55.630;37.594;2022-10-16T06:13:04;8.7;;;3.3;;
74644;SDS011;63163;55.630;37.594;2022-10-16T06:14:05;4.9;;;2.4;;
74644;SDS011;63163;55.630;37.594;2022-10-16T06:15:07;6.0;;;2.2;;